createdAt,value
2023-05-09T00:00:03.092Z,53.09
2023-05-09T00:01:03.069Z,52.57
2023-05-09T00:02:03.109Z,52.90
2023-05-09T00:03:03.077Z,52.68
2023-05-09T00:04:03.215Z,52.38
2023-05-09T00:05:03.056Z,52.54
2023-05-09T00:06:03.023Z,52.53
2023-05-09T00:07:03.054Z,52.34
2023-05-09T00:08:03.017Z,52.33
2023-05-09T00:09:03.083Z,53.61
2023-05-09T00:10:03.081Z,55.04
2023-05-09T00:11:02.991Z,54.65
2023-05-09T00:12:02.995Z,54.15
2023-05-09T00:13:03.095Z,52.29
2023-05-09T00:14:02.980Z,52.44
2023-05-09T00:15:02.977Z,52.22
2023-05-09T00:16:03.074Z,52.25
2023-05-09T00:17:02.943Z,52.33
2023-05-09T00:18:02.961Z,53.10
2023-05-09T00:19:02.963Z,52.68
2023-05-09T00:20:02.941Z,52.50
2023-05-09T00:21:02.926Z,52.43
2023-05-09T00:22:03.027Z,52.36
2023-05-09T00:23:02.920Z,52.44
2023-05-09T00:24:02.898Z,52.35
2023-05-09T00:25:02.955Z,52.31
2023-05-09T00:26:02.923Z,52.40
2023-05-09T00:27:02.880Z,52.38
2023-05-09T00:28:02.953Z,52.51
2023-05-09T00:29:02.874Z,52.46
2023-05-09T00:30:02.912Z,52.26
2023-05-09T00:31:02.848Z,52.33
2023-05-09T00:32:02.930Z,52.41
2023-05-09T00:33:02.870Z,52.24
2023-05-09T00:34:03.239Z,52.17
2023-05-09T00:35:02.840Z,52.33
2023-05-09T00:36:02.816Z,52.35
2023-05-09T00:37:02.789Z,52.37
2023-05-09T00:38:02.779Z,52.46
2023-05-09T00:39:02.798Z,53.17
2023-05-09T00:40:02.831Z,52.29
2023-05-09T00:41:02.839Z,52.41
2023-05-09T00:42:02.754Z,52.35
2023-05-09T00:43:02.761Z,52.35
2023-05-09T00:44:02.745Z,52.58
2023-05-09T00:45:02.799Z,52.34
2023-05-09T00:46:02.790Z,52.28
2023-05-09T00:47:02.726Z,52.48
2023-05-09T00:48:02.760Z,52.80
2023-05-09T00:49:02.695Z,52.40
2023-05-09T00:50:02.690Z,52.92
2023-05-09T00:51:02.730Z,53.99
2023-05-09T00:52:02.741Z,52.19
2023-05-09T00:53:02.673Z,52.22
2023-05-09T00:54:02.742Z,52.23
2023-05-09T00:55:02.724Z,52.34
2023-05-09T00:56:02.697Z,52.19
2023-05-09T00:57:02.752Z,52.27
2023-05-09T00:58:02.687Z,52.73
2023-05-09T00:59:02.645Z,52.60
2023-05-09T01:00:02.658Z,62.59
2023-05-09T01:01:02.658Z,55.25
2023-05-09T01:02:02.613Z,52.55
2023-05-09T01:03:02.686Z,52.23
2023-05-09T01:04:02.627Z,52.21
2023-05-09T01:05:02.628Z,52.20
2023-05-09T01:06:02.596Z,52.21
2023-05-09T01:07:02.577Z,53.12
2023-05-09T01:08:02.596Z,52.62
2023-05-09T01:09:02.583Z,52.27
2023-05-09T01:10:02.610Z,52.31
2023-05-09T01:11:02.576Z,52.31
2023-05-09T01:12:02.567Z,52.38
2023-05-09T01:13:02.672Z,52.73
2023-05-09T01:14:02.540Z,52.54
2023-05-09T01:15:02.524Z,52.33
2023-05-09T01:16:02.587Z,52.33
2023-05-09T01:17:02.511Z,52.38
2023-05-09T01:18:02.592Z,52.19
2023-05-09T01:19:02.511Z,52.34
2023-05-09T01:20:02.503Z,52.50
2023-05-09T01:21:02.494Z,52.39
2023-05-09T01:22:02.513Z,52.29
2023-05-09T01:23:02.468Z,52.33
2023-05-09T01:24:02.449Z,52.29
2023-05-09T01:25:02.437Z,52.30
2023-05-09T01:26:02.477Z,52.56
2023-05-09T01:27:02.425Z,52.78
2023-05-09T01:28:02.507Z,52.70
2023-05-09T01:29:02.479Z,52.39
2023-05-09T01:30:02.448Z,52.26
2023-05-09T01:31:02.419Z,52.34
2023-05-09T01:32:02.389Z,52.43
2023-05-09T01:33:02.423Z,52.51
2023-05-09T01:34:02.425Z,52.54
2023-05-09T01:35:02.381Z,52.62
2023-05-09T01:36:02.344Z,52.51
2023-05-09T01:37:02.376Z,52.43
2023-05-09T01:38:02.335Z,52.66
2023-05-09T01:39:02.349Z,52.61
2023-05-09T01:40:02.631Z,52.65
2023-05-09T01:41:02.341Z,52.51
2023-05-09T01:42:02.355Z,52.23
2023-05-09T01:43:02.316Z,52.30
2023-05-09T01:44:02.382Z,52.26
2023-05-09T01:45:02.357Z,52.29
2023-05-09T01:46:02.325Z,52.33
2023-05-09T01:47:02.344Z,52.27
2023-05-09T01:48:02.324Z,52.26
2023-05-09T01:49:02.265Z,52.36
2023-05-09T01:50:02.267Z,52.41
2023-05-09T01:51:02.281Z,52.45
2023-05-09T01:52:02.321Z,52.30
2023-05-09T01:53:02.273Z,52.39
2023-05-09T01:54:02.237Z,53.51
2023-05-09T01:55:02.302Z,55.80
2023-05-09T01:56:02.245Z,56.12
2023-05-09T01:57:02.210Z,54.41
2023-05-09T01:58:02.270Z,52.29
2023-05-09T01:59:02.197Z,52.48
2023-05-09T02:00:02.174Z,52.32
2023-05-09T02:01:02.398Z,53.45
2023-05-09T02:02:02.234Z,52.70
2023-05-09T02:03:02.212Z,52.34
2023-05-09T02:04:02.174Z,52.39
2023-05-09T02:05:02.191Z,52.46
2023-05-09T02:06:02.137Z,53.13
2023-05-09T02:07:02.154Z,53.72
2023-05-09T02:08:02.131Z,53.14
2023-05-09T02:09:02.150Z,52.39
2023-05-09T02:10:02.157Z,52.45
2023-05-09T02:11:02.147Z,52.35
2023-05-09T02:12:02.130Z,52.28
2023-05-09T02:13:02.122Z,52.56
2023-05-09T02:14:02.089Z,55.17
2023-05-09T02:15:02.136Z,55.02
2023-05-09T02:16:02.169Z,55.08
2023-05-09T02:17:02.150Z,54.02
2023-05-09T02:18:02.123Z,52.98
2023-05-09T02:19:02.078Z,52.89
2023-05-09T02:20:02.074Z,52.40
2023-05-09T02:21:02.058Z,52.53
2023-05-09T02:22:02.064Z,53.25
2023-05-09T02:23:02.052Z,52.50
2023-05-09T02:24:02.034Z,52.50
2023-05-09T02:25:02.032Z,52.48
2023-05-09T02:26:02.008Z,53.88
2023-05-09T02:27:02.012Z,52.57
2023-05-09T02:28:02.054Z,52.67
2023-05-09T02:29:01.998Z,53.30
2023-05-09T02:30:01.980Z,53.12
2023-05-09T02:31:01.987Z,52.89
2023-05-09T02:32:02.000Z,53.45
2023-05-09T02:33:02.067Z,52.77
2023-05-09T02:34:01.999Z,54.13
2023-05-09T02:35:01.941Z,56.54
2023-05-09T02:36:01.948Z,55.56
2023-05-09T02:37:01.915Z,53.95
2023-05-09T02:38:01.936Z,52.79
2023-05-09T02:39:01.901Z,52.87
2023-05-09T02:40:01.982Z,52.91
2023-05-09T02:41:01.898Z,55.12
2023-05-09T02:42:01.905Z,53.17
2023-05-09T02:43:01.877Z,53.35
2023-05-09T02:44:01.866Z,52.67
2023-05-09T02:45:01.858Z,52.68
2023-05-09T02:46:02.382Z,52.69
2023-05-09T02:47:01.866Z,53.08
2023-05-09T02:48:01.879Z,53.33
2023-05-09T02:49:01.918Z,52.89
2023-05-09T02:50:01.829Z,52.98
2023-05-09T02:51:01.832Z,55.89
2023-05-09T02:52:01.846Z,54.22
2023-05-09T02:53:01.807Z,56.43
2023-05-09T02:54:01.819Z,53.91
2023-05-09T02:55:01.796Z,54.10
2023-05-09T02:56:01.783Z,54.26
2023-05-09T02:57:01.767Z,54.08
2023-05-09T02:58:12.126Z,53.91
2023-05-09T02:59:02.773Z,56.03
2023-05-09T03:00:01.772Z,55.41
2023-05-09T03:01:01.752Z,56.39
2023-05-09T03:02:01.748Z,55.85
2023-05-09T03:03:01.797Z,54.71
2023-05-09T03:04:01.779Z,54.83
2023-05-09T03:05:01.798Z,54.92
2023-05-09T03:06:01.713Z,54.28
2023-05-09T03:07:01.690Z,54.89
2023-05-09T03:08:01.736Z,57.00
2023-05-09T03:09:01.689Z,54.67
2023-05-09T03:10:01.742Z,54.89
2023-05-09T03:11:01.674Z,53.89
2023-05-09T03:12:01.684Z,54.05
2023-05-09T03:13:01.693Z,54.71
2023-05-09T03:14:01.694Z,56.13
2023-05-09T03:15:01.651Z,56.53
2023-05-09T03:16:01.703Z,57.24
2023-05-09T03:17:01.635Z,55.69
2023-05-09T03:18:01.686Z,55.51
2023-05-09T03:19:01.636Z,54.94
2023-05-09T03:20:04.148Z,54.89
2023-05-09T03:21:01.668Z,54.75
2023-05-09T03:22:01.672Z,54.82
2023-05-09T03:23:01.587Z,54.99
2023-05-09T03:24:01.587Z,54.96
2023-05-09T03:25:01.557Z,55.03
2023-05-09T03:26:01.567Z,53.65
2023-05-09T03:27:02.959Z,54.14
2023-05-09T03:28:01.920Z,53.81
2023-05-09T03:29:01.555Z,54.36
2023-05-09T03:30:01.553Z,54.94
2023-05-09T03:31:01.527Z,54.86
2023-05-09T03:32:01.504Z,56.40
2023-05-09T03:33:01.527Z,55.04
2023-05-09T03:34:01.553Z,55.51
2023-05-09T03:35:01.521Z,54.01
2023-05-09T03:36:01.515Z,55.26
2023-05-09T03:37:01.605Z,55.95
2023-05-09T03:38:01.474Z,53.55
2023-05-09T03:39:01.459Z,53.86
2023-05-09T03:40:01.513Z,54.54
2023-05-09T03:41:01.448Z,54.10
2023-05-09T03:42:01.472Z,55.03
2023-05-09T03:43:01.427Z,55.00
2023-05-09T03:44:01.463Z,55.43
2023-05-09T03:45:01.458Z,54.40
2023-05-09T03:46:01.457Z,53.61
2023-05-09T03:47:01.458Z,56.80
2023-05-09T03:48:01.413Z,54.94
2023-05-09T03:49:01.407Z,55.45
2023-05-09T03:50:01.445Z,58.05
2023-05-09T03:51:01.378Z,55.77
2023-05-09T03:52:01.848Z,54.43
2023-05-09T03:53:01.444Z,54.19
2023-05-09T03:54:01.370Z,53.97
2023-05-09T03:55:01.347Z,54.67
2023-05-09T03:56:01.385Z,54.83
2023-05-09T03:57:01.349Z,53.93
2023-05-09T03:58:01.410Z,53.96
2023-05-09T03:59:01.348Z,54.41
2023-05-09T04:00:01.358Z,54.31
2023-05-09T04:01:01.331Z,55.80
2023-05-09T04:02:01.335Z,55.01
2023-05-09T04:03:01.404Z,56.74
2023-05-09T04:04:01.388Z,58.07
2023-05-09T04:05:01.327Z,55.46
2023-05-09T04:06:01.276Z,56.49
2023-05-09T04:07:01.298Z,57.79
2023-05-09T04:08:01.264Z,59.01
2023-05-09T04:09:01.268Z,54.01
2023-05-09T04:10:01.297Z,53.95
2023-05-09T04:11:01.223Z,54.30
2023-05-09T04:12:01.228Z,54.23
2023-05-09T04:13:01.248Z,53.27
2023-05-09T04:14:01.210Z,53.35
2023-05-09T04:15:01.217Z,53.48
2023-05-09T04:16:01.267Z,53.27
2023-05-09T04:17:01.278Z,53.58
2023-05-09T04:18:01.232Z,56.40
2023-05-09T04:19:01.170Z,56.13
2023-05-09T04:20:01.287Z,59.06
2023-05-09T04:21:01.180Z,55.19
2023-05-09T04:22:01.199Z,55.18
2023-05-09T04:23:01.179Z,56.08
2023-05-09T04:24:01.143Z,60.36
2023-05-09T04:25:01.217Z,63.46
2023-05-09T04:26:01.137Z,63.88
2023-05-09T04:27:01.110Z,66.40
2023-05-09T04:28:01.133Z,61.05
2023-05-09T04:29:01.125Z,58.98
2023-05-09T04:30:01.115Z,63.16
2023-05-09T04:31:01.237Z,59.94
2023-05-09T04:32:01.220Z,57.32
2023-05-09T04:33:01.131Z,55.45
2023-05-09T04:34:01.175Z,56.89
2023-05-09T04:35:01.075Z,57.43
2023-05-09T04:36:01.052Z,60.71
2023-05-09T04:37:01.035Z,63.60
2023-05-09T04:38:01.028Z,62.14
2023-05-09T04:39:01.038Z,63.93
2023-05-09T04:40:01.075Z,58.94
2023-05-09T04:41:01.091Z,56.11
2023-05-09T04:42:01.017Z,58.71
2023-05-09T04:43:01.004Z,57.47
2023-05-09T04:44:01.017Z,59.45
2023-05-09T04:45:00.975Z,58.96
2023-05-09T04:46:01.019Z,56.33
2023-05-09T04:47:00.979Z,56.90
2023-05-09T04:48:01.041Z,60.61
2023-05-09T04:49:00.963Z,70.20
2023-05-09T04:50:00.970Z,72.41
2023-05-09T04:51:00.949Z,69.43
2023-05-09T04:52:00.968Z,63.22
2023-05-09T04:53:00.925Z,59.23
2023-05-09T04:54:00.920Z,58.43
2023-05-09T04:55:00.946Z,58.82
2023-05-09T04:56:00.920Z,56.17
2023-05-09T04:57:10.213Z,56.44
2023-05-09T04:58:02.386Z,54.46
2023-05-09T04:59:00.868Z,57.68
2023-05-09T05:00:00.867Z,57.84
2023-05-09T05:01:00.862Z,59.20
2023-05-09T05:02:00.920Z,58.37
2023-05-09T05:03:00.861Z,57.67
2023-05-09T05:04:00.894Z,54.78
2023-05-09T05:05:10.853Z,61.89
2023-05-09T05:06:01.835Z,58.54
2023-05-09T05:07:00.842Z,59.70
2023-05-09T05:08:00.832Z,56.61
2023-05-09T05:09:00.833Z,56.49
2023-05-09T05:10:00.822Z,57.31
2023-05-09T05:11:00.779Z,55.04
2023-05-09T05:12:02.866Z,55.80
2023-05-09T05:13:00.819Z,56.19
2023-05-09T05:14:00.780Z,55.10
2023-05-09T05:15:00.762Z,54.63
2023-05-09T05:16:00.823Z,55.34
2023-05-09T05:17:00.734Z,58.29
2023-05-09T05:18:00.805Z,56.68
2023-05-09T05:19:00.732Z,56.31
2023-05-09T05:20:00.726Z,57.68
2023-05-09T05:21:00.733Z,56.52
2023-05-09T05:22:00.734Z,55.99
2023-05-09T05:23:00.829Z,55.23
2023-05-09T05:24:00.690Z,58.05
2023-05-09T05:25:00.685Z,57.23
2023-05-09T05:26:00.663Z,56.80
2023-05-09T05:27:00.674Z,55.01
2023-05-09T05:28:00.714Z,56.15
2023-05-09T05:29:00.728Z,56.64
2023-05-09T05:30:00.669Z,58.91
2023-05-09T05:31:00.638Z,57.75
2023-05-09T05:32:00.677Z,59.46
2023-05-09T05:33:00.618Z,59.05
2023-05-09T05:34:00.634Z,56.71
2023-05-09T05:35:00.618Z,58.01
2023-05-09T05:36:00.608Z,58.70
2023-05-09T05:37:00.587Z,57.57
2023-05-09T05:38:00.594Z,55.88
2023-05-09T05:39:00.572Z,56.13
2023-05-09T05:40:00.609Z,58.05
2023-05-09T05:41:00.561Z,55.19
2023-05-09T05:42:00.576Z,56.19
2023-05-09T05:43:00.562Z,56.29
2023-05-09T05:44:00.541Z,57.33
2023-05-09T05:45:00.619Z,56.78
2023-05-09T05:46:00.609Z,55.51
2023-05-09T05:47:00.524Z,56.56
2023-05-09T05:48:00.558Z,59.09
2023-05-09T05:49:00.514Z,56.25
2023-05-09T05:50:00.484Z,57.64
2023-05-09T05:51:00.534Z,58.62
2023-05-09T05:52:00.544Z,56.43
2023-05-09T05:53:00.482Z,58.04
2023-05-09T05:54:00.482Z,60.10
2023-05-09T05:55:00.503Z,58.48
2023-05-09T05:56:00.471Z,58.91
2023-05-09T05:57:00.448Z,56.84
2023-05-09T05:58:00.478Z,56.33
2023-05-09T05:59:00.433Z,56.47
2023-05-09T06:00:00.432Z,55.99
2023-05-09T06:01:00.511Z,55.17
2023-05-09T06:02:00.489Z,55.62
2023-05-09T06:03:00.528Z,56.40
2023-05-09T06:04:00.620Z,55.39
2023-05-09T06:05:00.388Z,55.93
2023-05-09T06:06:00.385Z,55.13
2023-05-09T06:07:00.378Z,56.89
2023-05-09T06:08:00.373Z,56.75
2023-05-09T06:09:00.375Z,58.56
2023-05-09T06:10:00.389Z,58.26
2023-05-09T06:11:00.358Z,58.48
2023-05-09T06:12:00.330Z,57.89
2023-05-09T06:13:00.419Z,55.54
2023-05-09T06:14:00.317Z,54.96
2023-05-09T06:15:00.327Z,55.38
2023-05-09T06:16:15.141Z,55.01
2023-05-09T06:17:01.405Z,55.22
2023-05-09T06:18:00.328Z,56.23
2023-05-09T06:19:00.320Z,58.57
2023-05-09T06:20:00.280Z,54.00
2023-05-09T06:21:00.294Z,54.40
2023-05-09T06:22:00.316Z,54.61
2023-05-09T06:23:00.261Z,54.95
2023-05-09T06:24:07.856Z,58.83
2023-05-09T06:25:01.236Z,56.68
2023-05-09T06:26:00.257Z,59.17
2023-05-09T06:27:00.233Z,58.18
2023-05-09T06:28:00.306Z,60.69
2023-05-09T06:29:00.230Z,57.72
2023-05-09T06:30:01.437Z,58.20
2023-05-09T06:31:00.272Z,57.37
2023-05-09T06:32:00.306Z,58.78
2023-05-09T06:33:00.370Z,58.36
2023-05-09T06:34:00.239Z,56.69
2023-05-09T06:35:00.182Z,56.69
2023-05-09T06:36:00.221Z,56.36
2023-05-09T06:37:00.168Z,57.68
2023-05-09T06:38:00.168Z,57.61
2023-05-09T06:39:00.145Z,55.65
2023-05-09T06:40:00.264Z,58.00
2023-05-09T06:41:00.144Z,57.27
2023-05-09T06:42:00.133Z,55.96
2023-05-09T06:43:00.114Z,56.55
2023-05-09T06:44:00.135Z,55.38
2023-05-09T06:45:00.155Z,58.04
2023-05-09T06:46:00.210Z,56.91
2023-05-09T06:47:00.067Z,57.07
2023-05-09T06:48:00.158Z,58.64
2023-05-09T06:49:00.137Z,56.06
2023-05-09T06:50:00.053Z,56.85
2023-05-09T06:51:00.056Z,57.41
2023-05-09T06:52:00.107Z,58.99
2023-05-09T06:53:00.057Z,59.10
2023-05-09T06:54:00.085Z,56.26
2023-05-09T06:55:00.042Z,56.85
2023-05-09T06:56:00.028Z,56.58
2023-05-09T06:57:00.033Z,58.90
2023-05-09T06:58:00.025Z,58.48
2023-05-09T06:59:00.019Z,56.37
2023-05-09T06:59:59.984Z,57.61
2023-05-09T07:00:59.971Z,55.22
2023-05-09T07:02:00.054Z,58.54
2023-05-09T07:03:00.004Z,56.26
2023-05-09T07:04:00.022Z,60.83
2023-05-09T07:05:00.105Z,55.04
2023-05-09T07:05:59.944Z,54.97
2023-05-09T07:06:59.931Z,54.86
2023-05-09T07:07:59.936Z,55.48
2023-05-09T07:08:59.925Z,55.82
2023-05-09T07:10:10.626Z,55.41
2023-05-09T07:11:00.927Z,56.26
2023-05-09T07:11:59.915Z,54.43
2023-05-09T07:12:59.906Z,56.99
2023-05-09T07:13:59.898Z,57.49
2023-05-09T07:14:59.913Z,57.66
2023-05-09T07:15:59.977Z,59.17
2023-05-09T07:17:13.860Z,56.34
2023-05-09T07:18:00.882Z,55.57
2023-05-09T07:18:59.872Z,59.54
2023-05-09T07:19:59.868Z,60.37
2023-05-09T07:20:59.922Z,57.76
2023-05-09T07:21:59.892Z,56.94
2023-05-09T07:22:59.913Z,57.48
2023-05-09T07:23:59.823Z,56.22
2023-05-09T07:24:59.818Z,55.96
2023-05-09T07:25:59.815Z,55.03
2023-05-09T07:26:59.790Z,56.72
2023-05-09T07:27:59.826Z,56.73
2023-05-09T07:28:59.957Z,56.41
2023-05-09T07:29:59.784Z,57.99
2023-05-09T07:30:59.757Z,57.36
2023-05-09T07:31:59.803Z,58.23
2023-05-09T07:32:59.796Z,55.39
2023-05-09T07:33:59.781Z,56.71
2023-05-09T07:34:59.776Z,57.48
2023-05-09T07:35:59.721Z,58.19
2023-05-09T07:36:59.781Z,58.54
2023-05-09T07:37:59.722Z,56.58
2023-05-09T07:38:59.689Z,55.55
2023-05-09T07:39:59.789Z,56.49
2023-05-09T07:40:59.675Z,55.42
2023-05-09T07:41:59.689Z,57.47
2023-05-09T07:42:59.714Z,57.93
2023-05-09T07:43:59.676Z,57.09
2023-05-09T07:44:59.649Z,59.47
2023-05-09T07:45:59.747Z,58.35
2023-05-09T07:46:59.670Z,58.01
2023-05-09T07:47:59.729Z,57.05
2023-05-09T07:48:59.662Z,57.23
2023-05-09T07:49:59.618Z,57.13
2023-05-09T07:50:59.650Z,57.44
2023-05-09T07:51:59.661Z,61.70
2023-05-09T07:52:59.665Z,59.92
2023-05-09T07:53:59.577Z,59.90
2023-05-09T07:54:59.581Z,62.17
2023-05-09T07:55:59.584Z,60.08
2023-05-09T07:56:59.539Z,62.43
2023-05-09T07:57:59.569Z,63.94
2023-05-09T07:58:59.542Z,65.87
2023-05-09T07:59:59.544Z,68.25
2023-05-09T08:00:59.546Z,64.45
2023-05-09T08:01:59.538Z,66.27
2023-05-09T08:02:59.754Z,66.49
2023-05-09T08:03:59.675Z,66.42
2023-05-09T08:04:59.490Z,65.11
2023-05-09T08:05:59.517Z,61.68
2023-05-09T08:06:59.465Z,63.39
2023-05-09T08:07:59.469Z,63.28
2023-05-09T08:08:59.464Z,63.01
2023-05-09T08:09:59.476Z,60.44
2023-05-09T08:10:59.461Z,60.77
2023-05-09T08:11:59.441Z,63.34
2023-05-09T08:12:59.508Z,64.48
2023-05-09T08:13:59.432Z,57.78
2023-05-09T08:14:59.431Z,59.79
2023-05-09T08:15:59.851Z,58.33
2023-05-09T08:16:59.395Z,58.43
2023-05-09T08:17:59.442Z,56.51
2023-05-09T08:18:59.405Z,55.43
2023-05-09T08:19:59.383Z,55.91
2023-05-09T08:20:59.394Z,56.48
2023-05-09T08:21:59.402Z,60.95
2023-05-09T08:22:59.368Z,55.42
2023-05-09T08:23:59.365Z,55.88
2023-05-09T08:24:59.432Z,55.39
2023-05-09T08:25:59.427Z,55.89
2023-05-09T08:26:59.346Z,56.35
2023-05-09T08:27:59.353Z,58.24
2023-05-09T08:28:59.296Z,61.46
2023-05-09T08:29:59.309Z,61.05
2023-05-09T08:30:59.290Z,58.16
2023-05-09T08:31:59.309Z,58.23
2023-05-09T08:32:59.326Z,58.99
2023-05-09T08:33:59.316Z,57.10
2023-05-09T08:34:59.288Z,55.55
2023-05-09T08:35:59.288Z,58.68
2023-05-09T08:36:59.256Z,56.38
2023-05-09T08:37:59.246Z,58.68
2023-05-09T08:38:59.235Z,56.43
2023-05-09T08:39:59.274Z,54.78
2023-05-09T08:40:59.311Z,55.51
2023-05-09T08:41:59.228Z,58.58
2023-05-09T08:42:59.230Z,55.97
2023-05-09T08:43:59.208Z,58.91
2023-05-09T08:44:59.207Z,58.40
2023-05-09T08:45:59.339Z,58.91
2023-05-09T08:46:59.277Z,58.16
2023-05-09T08:47:59.203Z,58.54
2023-05-09T08:48:59.166Z,58.03
2023-05-09T08:49:59.141Z,56.85
2023-05-09T08:50:59.123Z,56.82
2023-05-09T08:51:59.181Z,56.26
2023-05-09T08:52:59.175Z,57.74
2023-05-09T08:53:59.110Z,56.21
2023-05-09T08:54:59.110Z,57.04
2023-05-09T08:55:59.104Z,57.53
2023-05-09T08:56:59.157Z,58.46
2023-05-09T08:57:59.159Z,58.50
2023-05-09T08:58:59.187Z,57.57
2023-05-09T08:59:59.074Z,56.16
2023-05-09T09:00:59.087Z,55.78
2023-05-09T09:01:59.122Z,56.26
2023-05-09T09:02:59.126Z,56.42
2023-05-09T09:03:59.097Z,56.31
2023-05-09T09:04:59.054Z,54.84
2023-05-09T09:05:59.130Z,56.90
2023-05-09T09:06:59.036Z,54.19
2023-05-09T09:07:59.002Z,55.53
2023-05-09T09:08:59.018Z,57.53
2023-05-09T09:09:59.051Z,57.60
2023-05-09T09:10:59.016Z,57.47
2023-05-09T09:11:59.015Z,57.63
2023-05-09T09:12:59.079Z,57.65
2023-05-09T09:13:58.985Z,56.04
2023-05-09T09:14:58.990Z,58.18
2023-05-09T09:15:59.158Z,59.50
2023-05-09T09:16:58.975Z,57.49
2023-05-09T09:17:59.014Z,58.21
2023-05-09T09:18:59.221Z,57.29
2023-05-09T09:19:58.925Z,57.52
2023-05-09T09:20:58.935Z,58.00
2023-05-09T09:21:59.157Z,58.77
2023-05-09T09:22:58.919Z,57.87
2023-05-09T09:23:58.914Z,57.22
2023-05-09T09:24:58.942Z,57.00
2023-05-09T09:25:59.880Z,57.45
2023-05-09T09:26:58.938Z,56.84
2023-05-09T09:27:59.083Z,56.16
2023-05-09T09:28:58.952Z,58.27
2023-05-09T09:29:58.876Z,56.57
2023-05-09T09:30:58.855Z,57.97
2023-05-09T09:31:58.884Z,56.51
2023-05-09T09:32:58.880Z,56.73
2023-05-09T09:33:58.981Z,60.31
2023-05-09T09:34:58.828Z,58.19
2023-05-09T09:35:58.798Z,58.83
2023-05-09T09:36:58.822Z,57.68
2023-05-09T09:37:59.874Z,56.70
2023-05-09T09:38:58.858Z,56.61
2023-05-09T09:39:58.833Z,55.46
2023-05-09T09:40:58.810Z,56.73
2023-05-09T09:41:58.778Z,54.87
2023-05-09T09:42:58.801Z,56.49
2023-05-09T09:43:58.887Z,56.35
2023-05-09T09:44:58.793Z,55.12
2023-05-09T09:45:58.825Z,55.97
2023-05-09T09:46:58.737Z,57.18
2023-05-09T09:47:58.809Z,56.51
2023-05-09T09:48:58.699Z,57.13
2023-05-09T09:49:58.728Z,57.40
2023-05-09T09:50:58.719Z,57.72
2023-05-09T09:51:58.793Z,58.26
2023-05-09T09:52:58.690Z,58.45
2023-05-09T09:53:58.717Z,56.23
2023-05-09T09:54:58.672Z,56.54
2023-05-09T09:55:58.824Z,57.32
2023-05-09T09:56:58.676Z,55.55
2023-05-09T09:57:58.710Z,57.89
2023-05-09T09:58:58.638Z,57.55
2023-05-09T09:59:58.696Z,58.09
2023-05-09T10:00:58.660Z,59.71
2023-05-09T10:01:58.661Z,57.78
2023-05-09T10:02:58.704Z,58.18
2023-05-09T10:03:58.706Z,58.13
2023-05-09T10:04:58.694Z,57.63
2023-05-09T10:05:58.607Z,57.53
2023-05-09T10:06:58.596Z,58.89
2023-05-09T10:07:58.564Z,57.97
2023-05-09T10:08:58.568Z,57.76
2023-05-09T10:09:58.618Z,56.79
2023-05-09T10:10:58.636Z,55.99
2023-05-09T10:11:58.530Z,56.57
2023-05-09T10:12:58.635Z,56.95
2023-05-09T10:13:58.592Z,55.13
2023-05-09T10:14:58.519Z,56.57
2023-05-09T10:15:58.697Z,57.62
2023-05-09T10:16:58.665Z,56.85
2023-05-09T10:17:58.643Z,57.01
2023-05-09T10:18:58.584Z,57.24
2023-05-09T10:19:58.526Z,57.60
2023-05-09T10:20:58.554Z,58.24
2023-05-09T10:21:58.883Z,58.17
2023-05-09T10:22:58.485Z,57.80
2023-05-09T10:23:58.459Z,55.87
2023-05-09T10:24:58.470Z,56.39
2023-05-09T10:25:58.425Z,57.30
2023-05-09T10:26:58.430Z,55.57
2023-05-09T10:27:58.486Z,56.92
2023-05-09T10:28:58.522Z,55.81
2023-05-09T10:29:58.427Z,55.45
2023-05-09T10:30:58.468Z,56.54
2023-05-09T10:31:58.439Z,58.70
2023-05-09T10:32:58.516Z,55.75
2023-05-09T10:33:58.406Z,57.03
2023-05-09T10:34:58.378Z,58.23
2023-05-09T10:35:58.380Z,58.40
2023-05-09T10:36:58.344Z,57.94
2023-05-09T10:37:58.402Z,57.97
2023-05-09T10:38:58.365Z,56.62
2023-05-09T10:39:58.361Z,56.60
2023-05-09T10:40:58.388Z,56.62
2023-05-09T10:41:58.333Z,55.73
2023-05-09T10:42:58.301Z,57.88
2023-05-09T10:43:58.314Z,56.94
2023-05-09T10:44:58.294Z,54.93
2023-05-09T10:45:58.406Z,56.45
2023-05-09T10:46:58.436Z,57.26
2023-05-09T10:47:58.352Z,58.64
2023-05-09T10:48:59.400Z,58.98
2023-05-09T10:49:58.273Z,56.83
2023-05-09T10:50:58.317Z,57.90
2023-05-09T10:51:58.318Z,57.53
2023-05-09T10:52:58.240Z,57.16
2023-05-09T10:53:58.273Z,56.68
2023-05-09T10:54:58.232Z,56.74
2023-05-09T10:55:58.216Z,56.80
2023-05-09T10:56:58.211Z,56.85
2023-05-09T10:57:58.292Z,58.15
2023-05-09T10:58:58.179Z,59.49
2023-05-09T10:59:58.186Z,59.44
2023-05-09T11:00:58.318Z,58.87
2023-05-09T11:01:58.234Z,57.94
2023-05-09T11:02:58.289Z,58.31
2023-05-09T11:03:58.281Z,57.14
2023-05-09T11:04:58.230Z,56.41
2023-05-09T11:05:58.215Z,55.84
2023-05-09T11:06:58.140Z,57.35
2023-05-09T11:07:58.202Z,59.35
2023-05-09T11:08:58.127Z,57.76
2023-05-09T11:09:58.241Z,56.94
2023-05-09T11:10:58.192Z,57.46
2023-05-09T11:11:58.158Z,58.04
2023-05-09T11:12:58.486Z,58.25
2023-05-09T11:13:58.135Z,57.78
2023-05-09T11:14:58.185Z,58.55
2023-05-09T11:15:58.257Z,57.78
2023-05-09T11:16:58.129Z,58.18
2023-05-09T11:17:58.174Z,58.53
2023-05-09T11:18:58.126Z,58.60
2023-05-09T11:19:58.126Z,57.06
2023-05-09T11:20:58.154Z,58.69
2023-05-09T11:21:58.195Z,57.24
2023-05-09T11:22:58.114Z,57.96
2023-05-09T11:23:58.072Z,57.34
2023-05-09T11:24:58.093Z,57.31
2023-05-09T11:25:58.091Z,57.64
2023-05-09T11:26:58.065Z,56.26
2023-05-09T11:27:58.560Z,57.87
2023-05-09T11:28:58.093Z,57.97
2023-05-09T11:29:58.066Z,57.79
2023-05-09T11:30:58.020Z,58.43
2023-05-09T11:31:58.048Z,58.62
2023-05-09T11:32:58.109Z,58.45
2023-05-09T11:33:58.036Z,57.86
2023-05-09T11:34:58.188Z,59.56
2023-05-09T11:35:58.034Z,59.26
2023-05-09T11:36:58.022Z,66.79
2023-05-09T11:37:59.040Z,60.17
2023-05-09T11:38:57.965Z,56.78
2023-05-09T11:39:58.128Z,58.36
2023-05-09T11:40:57.942Z,58.22
2023-05-09T11:41:57.903Z,57.38
2023-05-09T11:42:58.821Z,58.25
2023-05-09T11:43:57.879Z,56.87
2023-05-09T11:44:57.925Z,58.14
2023-05-09T11:45:58.004Z,58.47
2023-05-09T11:46:57.876Z,59.73
2023-05-09T11:47:57.931Z,60.04
2023-05-09T11:48:57.894Z,56.51
2023-05-09T11:49:57.903Z,59.46
2023-05-09T11:50:57.891Z,57.56
2023-05-09T11:51:57.944Z,60.60
2023-05-09T11:52:57.956Z,56.87
2023-05-09T11:53:57.841Z,56.96
2023-05-09T11:54:57.909Z,57.45
2023-05-09T11:55:57.902Z,57.47
2023-05-09T11:56:57.792Z,56.61
2023-05-09T11:57:59.989Z,56.74
2023-05-09T11:58:57.790Z,58.01
2023-05-09T11:59:57.845Z,58.79
2023-05-09T12:00:57.799Z,58.49
2023-05-09T12:01:57.791Z,58.56
2023-05-09T12:02:58.918Z,58.38
2023-05-09T12:03:57.891Z,56.15
2023-05-09T12:04:57.828Z,55.85
2023-05-09T12:05:57.732Z,55.93
2023-05-09T12:06:57.710Z,56.68
2023-05-09T12:07:57.815Z,55.65
2023-05-09T12:08:57.796Z,56.43
2023-05-09T12:09:57.803Z,56.42
2023-05-09T12:10:57.739Z,55.78
2023-05-09T12:11:57.697Z,56.14
2023-05-09T12:12:57.715Z,55.90
2023-05-09T12:13:57.673Z,57.82
2023-05-09T12:14:57.668Z,57.19
2023-05-09T12:15:57.742Z,59.02
2023-05-09T12:16:57.673Z,59.59
2023-05-09T12:17:57.650Z,58.85
2023-05-09T12:18:57.687Z,56.97
2023-05-09T12:19:57.630Z,55.02
2023-05-09T12:20:57.629Z,56.74
2023-05-09T12:21:57.786Z,57.36
2023-05-09T12:22:57.652Z,56.81
2023-05-09T12:23:57.610Z,56.56
2023-05-09T12:24:57.695Z,56.71
2023-05-09T12:25:57.818Z,56.81
2023-05-09T12:26:57.647Z,57.88
2023-05-09T12:27:59.700Z,55.80
2023-05-09T12:28:57.653Z,57.38
2023-05-09T12:29:57.616Z,57.82
2023-05-09T12:30:57.716Z,57.75
2023-05-09T12:31:57.584Z,58.94
2023-05-09T12:32:57.672Z,57.47
2023-05-09T12:33:57.896Z,56.01
2023-05-09T12:34:57.525Z,56.14
2023-05-09T12:35:57.528Z,55.12
2023-05-09T12:36:57.521Z,55.77
2023-05-09T12:37:57.489Z,56.65
2023-05-09T12:38:57.544Z,57.02
2023-05-09T12:39:57.564Z,56.09
2023-05-09T12:40:57.534Z,55.04
2023-05-09T12:42:01.473Z,56.22
2023-05-09T12:42:57.572Z,56.21
2023-05-09T12:43:57.488Z,56.53
2023-05-09T12:44:57.452Z,58.06
2023-05-09T12:45:57.526Z,58.30
2023-05-09T12:46:57.569Z,57.96
2023-05-09T12:47:58.516Z,57.95
2023-05-09T12:48:57.528Z,56.83
2023-05-09T12:49:57.410Z,56.48
2023-05-09T12:50:57.409Z,56.54
2023-05-09T12:51:57.534Z,56.63